createdAt,value
2023-02-04T00:00:42.332Z,91.04
2023-02-04T00:03:28.053Z,91.01
2023-02-04T00:05:56.154Z,91.01
2023-02-04T00:08:24.224Z,91.01
2023-02-04T00:10:52.158Z,90.97
2023-02-04T00:13:20.216Z,90.93
2023-02-04T00:15:48.243Z,90.92
2023-02-04T00:18:16.432Z,90.91
2023-02-04T00:20:44.446Z,90.93
2023-02-04T00:23:12.557Z,90.95
2023-02-04T00:25:41.583Z,90.97
2023-02-04T00:28:09.782Z,90.96
2023-02-04T00:30:37.774Z,90.98
2023-02-04T00:33:05.875Z,91.02
2023-02-04T00:35:33.827Z,91.08
2023-02-04T00:38:01.903Z,91.18
2023-02-04T00:40:30.270Z,91.22
2023-02-04T00:42:58.584Z,91.28
2023-02-04T00:45:29.046Z,91.32
2023-02-04T00:47:57.534Z,91.33
2023-02-04T00:50:25.648Z,91.34
2023-02-04T00:52:53.611Z,91.39
2023-02-04T00:55:21.604Z,91.48
2023-02-04T00:57:51.494Z,91.54
2023-02-04T01:00:19.951Z,91.56
2023-02-04T01:02:47.885Z,91.57
2023-02-04T01:05:16.434Z,91.56
2023-02-04T01:07:46.506Z,91.58
2023-02-04T01:10:16.195Z,91.58
2023-02-04T01:12:44.804Z,91.60
2023-02-04T01:15:13.134Z,91.57
2023-02-04T01:17:41.955Z,91.54
2023-02-04T01:20:10.921Z,91.50
2023-02-04T01:22:38.874Z,91.44
2023-02-04T01:25:07.488Z,91.41
2023-02-04T01:27:44.711Z,91.36
2023-02-04T01:30:15.273Z,91.33
2023-02-04T01:32:43.232Z,91.30
2023-02-04T01:35:11.323Z,91.28
2023-02-04T01:37:40.995Z,91.27
2023-02-04T01:40:10.367Z,91.19
2023-02-04T01:42:38.576Z,91.06
2023-02-04T01:45:08.379Z,90.93
2023-02-04T01:47:37.082Z,90.83
2023-02-04T01:50:10.676Z,90.65
2023-02-04T01:52:40.000Z,90.51
2023-02-04T01:55:18.516Z,90.43
2023-02-04T01:57:47.381Z,90.34
2023-02-04T02:00:18.224Z,90.26
2023-02-04T02:02:51.636Z,90.23
2023-02-04T02:05:40.524Z,90.24
2023-02-04T02:08:09.071Z,90.25
2023-02-04T02:10:41.407Z,90.27
2023-02-04T02:13:13.977Z,90.26
2023-02-04T02:15:42.278Z,90.18
2023-02-04T02:18:11.847Z,90.13
2023-02-04T02:20:42.943Z,90.07
2023-02-04T02:23:49.706Z,90.04
2023-02-04T02:26:19.916Z,89.98
2023-02-04T02:28:49.538Z,89.94
2023-02-04T02:31:23.067Z,89.89
2023-02-04T02:33:51.268Z,89.87
2023-02-04T02:36:20.008Z,89.83
2023-02-04T02:38:47.909Z,89.78
2023-02-04T02:41:16.051Z,89.78
2023-02-04T02:43:44.759Z,89.78
2023-02-04T02:46:12.829Z,89.75
2023-02-04T02:48:40.862Z,89.71
2023-02-04T02:51:09.446Z,89.60
2023-02-04T02:53:37.962Z,89.52
2023-02-04T02:56:06.694Z,89.45
2023-02-04T02:58:36.527Z,89.39
2023-02-04T03:01:07.385Z,89.38
2023-02-04T03:03:40.422Z,89.33
2023-02-04T03:06:15.887Z,89.33
2023-02-04T03:08:44.933Z,89.31
2023-02-04T03:11:13.018Z,89.29
2023-02-04T03:13:43.050Z,89.30
2023-02-04T03:16:11.344Z,89.30
2023-02-04T03:18:39.537Z,89.28
2023-02-04T03:21:08.225Z,89.24
2023-02-04T03:23:38.513Z,89.20
2023-02-04T03:26:07.381Z,89.12
2023-02-04T03:28:40.037Z,89.12
2023-02-04T03:31:09.307Z,89.12
2023-02-04T03:33:37.539Z,89.08
2023-02-04T03:36:06.103Z,89.05
2023-02-04T03:38:34.453Z,89.01
2023-02-04T03:41:02.525Z,89.02
2023-02-04T03:43:32.384Z,89.06
2023-02-04T03:46:01.774Z,89.09
2023-02-04T03:48:30.089Z,89.09
2023-02-04T03:50:57.996Z,89.14
2023-02-04T03:53:26.379Z,89.19
2023-02-04T03:55:54.791Z,89.24
2023-02-04T03:58:22.942Z,89.28
2023-02-04T04:05:18.054Z,89.36
2023-02-04T04:07:46.256Z,89.42
2023-02-04T04:10:15.527Z,89.47
2023-02-04T04:12:43.518Z,89.49
2023-02-04T04:15:11.630Z,89.50
2023-02-04T04:17:39.983Z,89.45
2023-02-04T04:20:08.484Z,89.43
2023-02-04T04:22:37.680Z,89.37
2023-02-04T04:25:07.220Z,89.35
2023-02-04T04:27:35.252Z,89.29
2023-02-04T04:34:38.320Z,89.18
2023-02-04T04:37:06.389Z,89.14
2023-02-04T04:39:34.605Z,89.12
2023-02-04T04:42:02.774Z,89.13
2023-02-04T04:44:30.729Z,89.14
2023-02-04T04:46:58.730Z,89.19
2023-02-04T04:49:26.952Z,89.21
2023-02-04T04:51:55.122Z,89.26
2023-02-04T04:54:23.222Z,89.31
2023-02-04T04:56:51.447Z,89.36
2023-02-04T04:59:19.731Z,89.39
2023-02-04T05:01:47.751Z,89.41
2023-02-04T05:04:15.738Z,89.50
2023-02-04T05:06:43.703Z,89.53
2023-02-04T05:09:11.979Z,89.54
2023-02-04T05:11:40.378Z,89.57
2023-02-04T05:14:08.292Z,89.62
2023-02-04T05:16:36.418Z,89.71
2023-02-04T05:19:04.530Z,89.74
2023-02-04T05:21:32.751Z,89.78
2023-02-04T05:24:00.836Z,89.80
2023-02-04T05:26:31.046Z,89.82
2023-02-04T05:29:02.539Z,89.80
2023-02-04T05:31:31.219Z,89.84
2023-02-04T05:33:59.377Z,89.84
2023-02-04T05:36:27.548Z,89.84
2023-02-04T05:38:55.518Z,89.83
2023-02-04T05:41:23.499Z,89.81
2023-02-04T05:43:51.490Z,89.81
2023-02-04T05:46:19.489Z,89.80
2023-02-04T05:48:47.632Z,89.78
2023-02-04T05:51:16.074Z,89.74
2023-02-04T05:53:44.274Z,89.71
2023-02-04T05:56:12.229Z,89.66
2023-02-04T05:58:40.256Z,89.61
2023-02-04T06:01:08.456Z,89.56
2023-02-04T06:03:36.596Z,89.52
2023-02-04T06:06:04.795Z,89.46
2023-02-04T06:08:32.764Z,89.36
2023-02-04T06:11:00.748Z,89.32
2023-02-04T06:13:28.655Z,89.25
2023-02-04T06:15:56.621Z,89.16
2023-02-04T06:18:24.644Z,89.08
2023-02-04T06:20:52.631Z,89.01
2023-02-04T06:23:20.731Z,88.88
2023-02-04T06:25:50.407Z,88.76
2023-02-04T06:28:18.545Z,88.74
2023-02-04T06:30:46.896Z,88.54
2023-02-04T06:33:16.304Z,88.28
2023-02-04T06:35:44.660Z,88.33
2023-02-04T06:38:12.902Z,88.06
2023-02-04T06:40:40.896Z,87.86
2023-02-04T06:43:09.200Z,87.91
2023-02-04T06:45:37.229Z,87.82
2023-02-04T06:48:05.694Z,87.82
2023-02-04T06:50:33.961Z,87.64
2023-02-04T06:53:02.664Z,87.83
2023-02-04T06:55:30.953Z,87.82
2023-02-04T06:57:59.005Z,87.63
2023-02-04T07:00:26.976Z,87.40
2023-02-04T07:02:56.803Z,87.37
2023-02-04T07:05:26.108Z,87.37
2023-02-04T07:07:54.460Z,87.25
2023-02-04T07:10:22.778Z,86.78
2023-02-04T07:12:50.761Z,86.65
2023-02-04T07:15:19.102Z,86.78
2023-02-04T07:17:47.059Z,86.58
2023-02-04T07:20:15.244Z,86.55
2023-02-04T07:22:43.229Z,86.62
2023-02-04T07:25:15.214Z,86.57
2023-02-04T07:27:44.173Z,86.31
2023-02-04T07:30:13.277Z,86.06
2023-02-04T07:32:41.434Z,85.45
2023-02-04T07:35:10.470Z,84.16
2023-02-04T07:37:38.624Z,84.48
2023-02-04T07:40:07.359Z,83.59
2023-02-04T07:42:35.594Z,83.63
2023-02-04T07:45:07.870Z,82.66
2023-02-04T07:47:35.995Z,83.11
2023-02-04T07:50:04.557Z,82.38
2023-02-04T07:52:32.586Z,82.40
2023-02-04T07:55:00.748Z,82.55
2023-02-04T07:57:30.189Z,81.44
2023-02-04T07:59:59.342Z,79.40
2023-02-04T08:02:27.592Z,79.88
2023-02-04T08:04:55.902Z,79.45
2023-02-04T08:07:23.951Z,79.29
2023-02-04T08:09:52.540Z,78.80
2023-02-04T08:12:20.502Z,79.30
2023-02-04T08:14:48.678Z,78.49
2023-02-04T08:17:17.262Z,78.32
2023-02-04T08:19:45.592Z,78.06
2023-02-04T08:22:13.746Z,77.82
2023-02-04T08:24:42.036Z,78.06
2023-02-04T08:27:10.218Z,76.52
2023-02-04T08:29:38.483Z,76.67
2023-02-04T08:32:10.392Z,75.21
2023-02-04T08:34:38.472Z,74.48
2023-02-04T08:37:06.572Z,74.41
2023-02-04T08:39:34.695Z,75.26
2023-02-04T08:42:02.912Z,74.59
2023-02-04T08:44:31.266Z,72.60
2023-02-04T08:46:59.600Z,72.61
2023-02-04T08:49:27.956Z,73.92
2023-02-04T08:51:56.322Z,75.02
2023-02-04T08:54:26.365Z,73.46
2023-02-04T08:56:54.717Z,74.18
2023-02-04T08:59:24.333Z,74.21
2023-02-04T09:01:53.328Z,74.16
2023-02-04T09:04:23.986Z,75.04
2023-02-04T09:06:52.540Z,74.45
2023-02-04T09:09:23.011Z,73.61
2023-02-04T09:11:51.895Z,71.50
2023-02-04T09:14:19.925Z,72.34
2023-02-04T09:16:49.194Z,71.69
2023-02-04T09:19:19.474Z,70.79
2023-02-04T09:21:47.577Z,69.29
2023-02-04T09:24:15.736Z,69.46
2023-02-04T09:26:43.834Z,68.73
2023-02-04T09:29:11.819Z,69.26
2023-02-04T09:31:40.414Z,69.36
2023-02-04T09:34:08.613Z,68.48
2023-02-04T09:36:38.667Z,67.62
2023-02-04T09:39:09.982Z,67.78
2023-02-04T09:41:41.885Z,67.56
2023-02-04T09:44:20.062Z,67.26
2023-02-04T09:46:51.631Z,67.16
2023-02-04T09:49:20.268Z,65.98
2023-02-04T09:51:49.980Z,67.95
2023-02-04T09:54:20.653Z,65.97
2023-02-04T09:56:50.522Z,65.09
2023-02-04T09:59:21.574Z,64.95
2023-02-04T10:05:22.350Z,65.95
2023-02-04T10:07:52.134Z,66.35
2023-02-04T10:10:25.201Z,66.90
2023-02-04T10:13:00.291Z,66.98
2023-02-04T10:15:28.703Z,66.68
2023-02-04T10:18:03.726Z,67.28
2023-02-04T10:20:32.231Z,67.32
2023-02-04T10:23:00.512Z,67.66
2023-02-04T10:25:28.704Z,68.28
2023-02-04T10:28:00.953Z,68.03
2023-02-04T10:30:36.008Z,68.60
2023-02-04T10:33:16.310Z,69.02
2023-02-04T10:35:47.456Z,69.04
2023-02-04T10:38:15.727Z,68.58
2023-02-04T10:40:44.478Z,69.16
2023-02-04T10:43:22.801Z,69.16
2023-02-04T10:46:02.476Z,69.73
2023-02-04T10:48:39.049Z,69.54
2023-02-04T10:51:13.061Z,69.74
2023-02-04T10:54:00.644Z,69.70
2023-02-04T10:56:28.829Z,69.34
2023-02-04T10:58:57.030Z,69.88
2023-02-04T11:04:34.007Z,69.57
2023-02-04T11:07:02.046Z,69.55
2023-02-04T11:09:29.966Z,69.30
2023-02-04T11:11:58.424Z,68.33
2023-02-04T11:14:30.521Z,68.91
2023-02-04T11:17:00.955Z,69.86
2023-02-04T11:19:35.858Z,70.28
2023-02-04T11:22:20.894Z,70.44
2023-02-04T11:24:49.281Z,70.45
2023-02-04T11:27:24.028Z,70.62
2023-02-04T11:29:53.173Z,70.66
2023-02-04T11:32:36.223Z,70.59
2023-02-04T11:35:13.490Z,70.15
2023-02-04T11:37:43.692Z,69.78
2023-02-04T11:40:34.956Z,70.06
2023-02-04T11:43:11.557Z,69.69
2023-02-04T11:45:41.823Z,69.44
2023-02-04T11:48:16.291Z,69.10
2023-02-04T11:50:59.210Z,70.04
2023-02-04T11:53:35.121Z,70.10
2023-02-04T11:56:03.565Z,70.76
2023-02-04T11:58:33.800Z,70.59
2023-02-04T12:01:01.942Z,70.34
2023-02-04T12:03:36.233Z,69.57
2023-02-04T12:06:04.421Z,69.57
2023-02-04T12:08:35.345Z,69.14
2023-02-04T12:11:30.395Z,69.21
2023-02-04T12:14:07.216Z,70.21
2023-02-04T12:16:53.441Z,70.59
2023-02-04T12:19:21.336Z,71.32
2023-02-04T12:21:49.634Z,71.98
2023-02-04T12:24:17.597Z,71.21
2023-02-04T12:26:45.564Z,71.64
2023-02-04T12:29:13.646Z,72.32
2023-02-04T12:31:42.302Z,72.53
2023-02-04T12:34:10.391Z,72.72
2023-02-04T12:36:38.421Z,72.55
2023-02-04T12:39:06.472Z,72.48
2023-02-04T12:41:34.695Z,72.52
2023-02-04T12:44:03.117Z,72.69
2023-02-04T12:46:31.147Z,72.96
2023-02-04T12:48:59.183Z,72.91
2023-02-04T12:51:27.209Z,73.33
2023-02-04T12:53:55.518Z,73.63
2023-02-04T12:56:24.340Z,73.72
2023-02-04T12:58:52.398Z,74.26
2023-02-04T13:01:20.284Z,74.31
2023-02-04T13:03:48.316Z,74.64
2023-02-04T13:06:16.205Z,75.09
2023-02-04T13:08:44.190Z,75.14
2023-02-04T13:11:12.353Z,74.95
2023-02-04T13:13:40.765Z,74.88
2023-02-04T13:16:08.863Z,74.80
2023-02-04T13:18:36.882Z,75.00
2023-02-04T13:21:05.121Z,75.24
2023-02-04T13:23:33.049Z,75.27
2023-02-04T13:26:01.025Z,75.09
2023-02-04T13:28:28.948Z,75.25
2023-02-04T13:30:56.837Z,75.16
2023-02-04T13:33:26.025Z,75.23
2023-02-04T13:35:54.204Z,75.29
2023-02-04T13:38:22.187Z,75.23
2023-02-04T13:40:50.173Z,75.50
2023-02-04T13:43:19.668Z,75.66
2023-02-04T13:45:49.071Z,75.41
2023-02-04T13:48:17.459Z,75.67
2023-02-04T13:50:45.418Z,75.81
2023-02-04T13:53:13.545Z,75.75
2023-02-04T13:55:43.225Z,75.89
2023-02-04T13:58:11.234Z,75.67
2023-02-04T14:00:39.325Z,75.61
2023-02-04T14:06:11.566Z,75.90
2023-02-04T14:08:39.821Z,75.95
2023-02-04T14:11:07.915Z,76.32
2023-02-04T14:13:35.797Z,76.70
2023-02-04T14:16:05.713Z,76.46
2023-02-04T14:18:33.728Z,76.59
2023-02-04T14:21:01.779Z,76.39
2023-02-04T14:23:29.913Z,76.34
2023-02-04T14:25:57.981Z,75.84
2023-02-04T14:28:26.113Z,75.52
2023-02-04T14:30:54.958Z,75.46
2023-02-04T14:33:23.579Z,75.33
2023-02-04T14:35:52.130Z,75.57
2023-02-04T14:38:20.455Z,75.84
2023-02-04T14:40:48.814Z,75.89
2023-02-04T14:43:16.901Z,76.08
2023-02-04T14:45:44.908Z,76.39
2023-02-04T14:48:12.934Z,76.51
2023-02-04T14:50:41.021Z,76.71
2023-02-04T14:53:09.132Z,76.85
2023-02-04T14:55:37.076Z,76.96
2023-02-04T14:58:05.480Z,77.15
2023-02-04T15:00:33.896Z,77.24
2023-02-04T15:03:02.102Z,77.25
2023-02-04T15:05:30.198Z,77.45
2023-02-04T15:07:58.153Z,77.73
2023-02-04T15:10:26.161Z,77.75
2023-02-04T15:12:55.489Z,77.70
2023-02-04T15:15:24.644Z,77.90
2023-02-04T15:17:52.717Z,78.27
2023-02-04T15:20:20.713Z,78.28
2023-02-04T15:22:52.036Z,78.19
2023-02-04T15:25:20.259Z,78.21
2023-02-04T15:27:48.647Z,78.24
2023-02-04T15:30:16.981Z,78.26
2023-02-04T15:32:46.098Z,78.32
2023-02-04T15:35:14.548Z,78.51
2023-02-04T15:37:42.676Z,78.69
2023-02-04T15:40:11.484Z,78.67
2023-02-04T15:42:39.704Z,78.50
2023-02-04T15:45:08.415Z,78.53
2023-02-04T15:47:36.474Z,78.56
2023-02-04T15:50:06.587Z,78.64
2023-02-04T15:52:34.545Z,78.74
2023-02-04T15:55:02.506Z,78.88
2023-02-04T15:57:30.395Z,78.92
2023-02-04T15:59:58.449Z,78.92
2023-02-04T16:02:46.494Z,79.03
2023-02-04T16:05:14.925Z,79.25
2023-02-04T16:07:43.273Z,79.40
2023-02-04T16:10:11.408Z,79.53
2023-02-04T16:12:39.432Z,79.64
2023-02-04T16:15:07.989Z,79.76
2023-02-04T16:17:35.986Z,79.67
2023-02-04T16:20:04.428Z,79.64
2023-02-04T16:22:32.546Z,79.72
2023-02-04T16:25:00.574Z,79.75
2023-02-04T16:27:28.845Z,79.73
2023-02-04T16:29:57.030Z,79.67
2023-02-04T16:32:25.144Z,79.62
2023-02-04T16:34:53.989Z,79.59
2023-02-04T16:37:22.284Z,79.56
2023-02-04T16:39:52.151Z,79.64
2023-02-04T16:42:20.107Z,79.67
2023-02-04T16:44:48.054Z,79.73
2023-02-04T16:47:16.629Z,79.95
2023-02-04T16:49:45.007Z,80.14
2023-02-04T16:52:13.109Z,80.13
2023-02-04T16:54:41.188Z,80.21
2023-02-04T16:57:09.448Z,80.23
2023-02-04T16:59:38.437Z,80.15
2023-02-04T17:02:07.008Z,80.15
2023-02-04T17:04:35.077Z,80.25
2023-02-04T17:07:03.502Z,80.40
2023-02-04T17:09:31.526Z,80.46
2023-02-04T17:11:59.449Z,80.62
2023-02-04T17:14:27.629Z,80.79
2023-02-04T17:16:55.533Z,81.08
2023-02-04T17:19:24.698Z,81.10
2023-02-04T17:21:54.064Z,81.19
2023-02-04T17:24:22.072Z,81.23
2023-02-04T17:26:50.075Z,81.19
2023-02-04T17:29:18.207Z,81.20
2023-02-04T17:31:46.239Z,81.06
2023-02-04T17:34:14.204Z,81.01
2023-02-04T17:36:42.208Z,80.95
2023-02-04T17:39:10.543Z,80.83
2023-02-04T17:41:38.522Z,80.79
2023-02-04T17:44:06.427Z,80.74
2023-02-04T17:46:37.192Z,80.66
2023-02-04T17:49:05.258Z,80.53
2023-02-04T17:51:33.236Z,80.39
2023-02-04T17:54:01.258Z,80.32
2023-02-04T17:56:29.469Z,80.32
2023-02-04T17:58:57.529Z,80.39
2023-02-04T18:01:26.324Z,80.52
2023-02-04T18:03:54.791Z,80.57
2023-02-04T18:06:27.295Z,80.63
2023-02-04T18:09:01.614Z,80.70
2023-02-04T18:11:36.421Z,80.81
2023-02-04T18:14:15.679Z,80.90
2023-02-04T18:16:44.698Z,80.93
2023-02-04T18:19:19.093Z,80.99
2023-02-04T18:21:49.471Z,81.16
2023-02-04T18:24:21.846Z,81.26
2023-02-04T18:26:52.792Z,81.43
2023-02-04T18:29:30.363Z,81.59
2023-02-04T18:32:20.287Z,81.79
2023-02-04T18:34:51.725Z,81.99
2023-02-04T18:37:34.249Z,82.14
2023-02-04T18:40:14.320Z,82.25
2023-02-04T18:42:44.789Z,82.41
2023-02-04T18:45:31.369Z,82.63
2023-02-04T18:48:16.310Z,82.91
2023-02-04T18:50:46.386Z,83.20
2023-02-04T18:53:14.975Z,83.49
2023-02-04T18:55:47.524Z,83.72
2023-02-04T18:58:34.428Z,83.93
2023-02-04T19:04:34.581Z,84.74
2023-02-04T19:07:11.304Z,85.00
2023-02-04T19:09:39.529Z,85.15
2023-02-04T19:12:22.450Z,85.36
2023-02-04T19:14:50.534Z,85.57
2023-02-04T19:17:30.170Z,85.89
2023-02-04T19:20:23.062Z,86.15
2023-02-04T19:22:54.980Z,86.26
2023-02-04T19:25:35.860Z,86.59
2023-02-04T19:28:18.511Z,86.75
2023-02-04T19:30:50.968Z,86.80
2023-02-04T19:33:42.460Z,86.78
2023-02-04T19:36:30.534Z,86.89
2023-02-04T19:39:03.718Z,86.93
2023-02-04T19:41:48.174Z,86.96
2023-02-04T19:44:22.590Z,87.08
2023-02-04T19:46:50.509Z,87.21
2023-02-04T19:49:21.697Z,87.23
2023-02-04T19:51:55.006Z,87.34
2023-02-04T19:54:38.666Z,87.44
2023-02-04T19:57:24.294Z,87.44
2023-02-04T19:59:56.697Z,87.47
2023-02-04T20:02:36.229Z,87.62
2023-02-04T20:05:18.756Z,87.71
2023-02-04T20:07:47.095Z,87.89
2023-02-04T20:10:25.883Z,87.92
2023-02-04T20:13:11.082Z,87.98
2023-02-04T20:15:39.166Z,88.04
2023-02-04T20:18:17.188Z,88.19
2023-02-04T20:20:47.116Z,88.45
2023-02-04T20:23:33.109Z,88.41
2023-02-04T20:26:01.600Z,88.31
2023-02-04T20:28:41.076Z,88.25
2023-02-04T20:31:24.445Z,88.22
2023-02-04T20:33:56.065Z,88.16
2023-02-04T20:36:34.562Z,88.15
2023-02-04T20:39:33.402Z,88.11
2023-02-04T20:42:33.989Z,88.09
2023-02-04T20:45:30.559Z,88.07
2023-02-04T20:48:16.975Z,88.06
2023-02-04T20:50:52.199Z,88.08
2023-02-04T20:53:23.575Z,88.07
2023-02-04T20:56:07.017Z,88.06
2023-02-04T20:58:41.224Z,88.05
2023-02-04T21:01:41.203Z,88.05
2023-02-04T21:04:24.424Z,88.09
2023-02-04T21:07:00.901Z,88.11
2023-02-04T21:09:32.231Z,88.19
2023-02-04T21:12:02.455Z,88.19
2023-02-04T21:14:30.787Z,88.23
2023-02-04T21:16:59.001Z,88.23
2023-02-04T21:19:30.747Z,88.23
2023-02-04T21:21:59.197Z,88.27
2023-02-04T21:24:30.579Z,88.24
2023-02-04T21:26:59.072Z,88.20
2023-02-04T21:29:27.199Z,88.22
2023-02-04T21:31:56.306Z,88.31
2023-02-04T21:34:24.283Z,88.37
2023-02-04T21:36:52.314Z,88.41
2023-02-04T21:39:20.862Z,88.38
2023-02-04T21:42:08.961Z,88.38
2023-02-04T21:44:38.161Z,88.31
2023-02-04T21:47:06.553Z,88.25
2023-02-04T21:49:38.153Z,88.20
2023-02-04T21:52:07.805Z,88.22
2023-02-04T21:54:36.432Z,88.33
2023-02-04T21:57:04.570Z,88.29
2023-02-04T21:59:32.948Z,88.23
2023-02-04T22:02:01.093Z,88.18
2023-02-04T22:04:29.839Z,88.14
2023-02-04T22:06:58.178Z,88.11
2023-02-04T22:09:26.191Z,88.08
2023-02-04T22:11:54.125Z,88.05
2023-02-04T22:14:40.831Z,88.04
2023-02-04T22:17:09.109Z,88.09
2023-02-04T22:19:43.144Z,88.11
2023-02-04T22:22:11.224Z,88.21
2023-02-04T22:24:39.259Z,88.28
2023-02-04T22:27:08.264Z,88.31
2023-02-04T22:29:36.278Z,88.35
2023-02-04T22:32:04.431Z,88.37
2023-02-04T22:34:32.484Z,88.37
2023-02-04T22:37:00.545Z,88.39
2023-02-04T22:39:29.063Z,88.39
2023-02-04T22:41:57.072Z,88.40
2023-02-04T22:44:25.173Z,88.39
2023-02-04T22:46:53.987Z,88.39
2023-02-04T22:49:22.081Z,88.41
2023-02-04T22:51:50.056Z,88.45
2023-02-04T22:54:18.176Z,88.46
2023-02-04T22:56:46.220Z,88.45
2023-02-04T22:59:16.069Z,88.47
2023-02-04T23:01:44.760Z,88.46
2023-02-04T23:04:12.687Z,88.46
2023-02-04T23:06:40.711Z,88.57
2023-02-04T23:09:09.367Z,88.70
2023-02-04T23:11:37.647Z,88.80
2023-02-04T23:14:05.653Z,88.88
2023-02-04T23:16:33.933Z,88.89
2023-02-04T23:19:02.243Z,88.94
2023-02-04T23:21:30.330Z,88.95
2023-02-04T23:23:59.192Z,88.93
2023-02-04T23:26:27.812Z,88.91
2023-02-04T23:28:55.944Z,88.89
2023-02-04T23:31:24.427Z,88.88
2023-02-04T23:33:52.535Z,88.85
2023-02-04T23:36:20.564Z,88.82
2023-02-04T23:38:52.165Z,88.79
2023-02-04T23:41:23.460Z,88.77
2023-02-04T23:43:51.468Z,88.76
2023-02-04T23:46:19.620Z,88.74
2023-02-04T23:48:47.943Z,88.76
2023-02-04T23:51:16.478Z,88.77
2023-02-04T23:53:44.804Z,88.79
2023-02-04T23:56:12.790Z,88.78
2023-02-04T23:58:40.947Z,88.79
